sensor_id;sensor_type;location;lat;lon;timestamp;P1;durP1;ratioP1;P2;durP2;ratioP2
26598;SDS011;14240;51.064;16.612;2023-03-14T00:01:22;13.43;;;5.40;;
26598;SDS011;14240;51.064;16.612;2023-03-14T00:03:48;12.35;;;5.88;;
26598;SDS011;14240;51.064;16.612;2023-03-14T00:06:15;9.68;;;5.05;;
26598;SDS011;14240;51.064;16.612;2023-03-14T00:08:43;13.98;;;5.68;;
26598;SDS011;14240;51.064;16.612;2023-03-14T00:11:10;8.00;;;5.28;;
26598;SDS011;14240;51.064;16.612;2023-03-14T00:13:37;9.50;;;5.53;;
26598;SDS011;14240;51.064;16.612;2023-03-14T00:16:10;23.40;;;6.10;;
26598;SDS011;14240;51.064;16.612;2023-03-14T00:18:37;14.95;;;6.45;;
26598;SDS011;14240;51.064;16.612;2023-03-14T00:21:04;21.45;;;7.70;;
26598;SDS011;14240;51.064;16.612;2023-03-14T00:23:31;16.95;;;9.25;;
26598;SDS011;14240;51.064;16.612;2023-03-14T00:26:31;26.27;;;11.98;;
26598;SDS011;14240;51.064;16.612;2023-03-14T00:28:51;26.38;;;11.15;;
26598;SDS011;14240;51.064;16.612;2023-03-14T00:31:18;17.80;;;7.47;;
26598;SDS011;14240;51.064;16.612;2023-03-14T00:33:44;14.63;;;7.93;;
26598;SDS011;14240;51.064;16.612;2023-03-14T00:36:11;12.05;;;6.55;;
26598;SDS011;14240;51.064;16.612;2023-03-14T00:38:39;13.45;;;5.72;;
26598;SDS011;14240;51.064;16.612;2023-03-14T00:41:10;12.00;;;6.13;;
26598;SDS011;14240;51.064;16.612;2023-03-14T00:43:37;10.35;;;5.45;;
26598;SDS011;14240;51.064;16.612;2023-03-14T00:46:04;131.52;;;44.22;;
26598;SDS011;14240;51.064;16.612;2023-03-14T00:48:30;271.48;;;79.68;;
26598;SDS011;14240;51.064;16.612;2023-03-14T00:50:56;50.55;;;18.00;;
26598;SDS011;14240;51.064;16.612;2023-03-14T00:53:21;17.05;;;7.88;;
26598;SDS011;14240;51.064;16.612;2023-03-14T00:55:47;8.85;;;5.70;;
26598;SDS011;14240;51.064;16.612;2023-03-14T00:58:14;9.27;;;5.70;;
26598;SDS011;14240;51.064;16.612;2023-03-14T01:00:41;11.45;;;5.57;;
26598;SDS011;14240;51.064;16.612;2023-03-14T01:03:08;14.23;;;5.95;;
26598;SDS011;14240;51.064;16.612;2023-03-14T01:05:34;10.85;;;6.05;;
26598;SDS011;14240;51.064;16.612;2023-03-14T01:08:00;11.65;;;6.57;;
26598;SDS011;14240;51.064;16.612;2023-03-14T01:10:26;12.50;;;7.70;;
26598;SDS011;14240;51.064;16.612;2023-03-14T01:12:52;12.00;;;6.38;;
26598;SDS011;14240;51.064;16.612;2023-03-14T01:15:18;15.05;;;6.60;;
26598;SDS011;14240;51.064;16.612;2023-03-14T01:17:44;14.15;;;6.50;;
26598;SDS011;14240;51.064;16.612;2023-03-14T01:20:11;12.38;;;6.50;;
26598;SDS011;14240;51.064;16.612;2023-03-14T01:22:41;21.23;;;7.38;;
26598;SDS011;14240;51.064;16.612;2023-03-14T01:25:09;10.60;;;7.07;;
26598;SDS011;14240;51.064;16.612;2023-03-14T01:27:39;14.68;;;6.75;;
26598;SDS011;14240;51.064;16.612;2023-03-14T01:30:06;19.60;;;7.10;;
26598;SDS011;14240;51.064;16.612;2023-03-14T01:32:33;20.37;;;7.30;;
26598;SDS011;14240;51.064;16.612;2023-03-14T01:34:59;11.27;;;6.30;;
26598;SDS011;14240;51.064;16.612;2023-03-14T01:37:24;12.07;;;6.50;;
26598;SDS011;14240;51.064;16.612;2023-03-14T01:39:50;15.48;;;7.78;;
26598;SDS011;14240;51.064;16.612;2023-03-14T01:42:16;19.73;;;7.32;;
26598;SDS011;14240;51.064;16.612;2023-03-14T01:44:50;18.77;;;7.68;;
26598;SDS011;14240;51.064;16.612;2023-03-14T01:47:20;24.13;;;10.43;;
26598;SDS011;14240;51.064;16.612;2023-03-14T01:49:46;15.55;;;7.70;;
26598;SDS011;14240;51.064;16.612;2023-03-14T01:52:22;14.43;;;6.88;;
26598;SDS011;14240;51.064;16.612;2023-03-14T01:54:54;11.60;;;5.90;;
26598;SDS011;14240;51.064;16.612;2023-03-14T02:00:03;13.63;;;5.75;;
26598;SDS011;14240;51.064;16.612;2023-03-14T02:02:42;10.88;;;5.85;;
26598;SDS011;14240;51.064;16.612;2023-03-14T02:05:30;12.80;;;5.82;;
26598;SDS011;14240;51.064;16.612;2023-03-14T02:07:59;15.75;;;6.47;;
26598;SDS011;14240;51.064;16.612;2023-03-14T02:10:34;13.40;;;6.05;;
26598;SDS011;14240;51.064;16.612;2023-03-14T02:13:06;7.78;;;4.97;;
26598;SDS011;14240;51.064;16.612;2023-03-14T02:15:33;11.10;;;5.95;;
26598;SDS011;14240;51.064;16.612;2023-03-14T02:17:59;9.95;;;5.43;;
26598;SDS011;14240;51.064;16.612;2023-03-14T02:23:24;7.07;;;4.43;;
26598;SDS011;14240;51.064;16.612;2023-03-14T02:25:59;8.77;;;4.47;;
26598;SDS011;14240;51.064;16.612;2023-03-14T02:28:30;7.88;;;4.15;;
26598;SDS011;14240;51.064;16.612;2023-03-14T02:30:55;9.85;;;5.13;;
26598;SDS011;14240;51.064;16.612;2023-03-14T02:33:21;7.05;;;4.50;;
26598;SDS011;14240;51.064;16.612;2023-03-14T02:35:50;6.47;;;4.72;;
26598;SDS011;14240;51.064;16.612;2023-03-14T02:41:17;7.10;;;4.25;;
26598;SDS011;14240;51.064;16.612;2023-03-14T02:43:43;9.23;;;4.07;;
26598;SDS011;14240;51.064;16.612;2023-03-14T02:46:13;6.22;;;4.32;;
26598;SDS011;14240;51.064;16.612;2023-03-14T02:48:50;8.88;;;4.10;;
26598;SDS011;14240;51.064;16.612;2023-03-14T02:51:19;11.40;;;4.77;;
26598;SDS011;14240;51.064;16.612;2023-03-14T02:53:46;9.18;;;4.38;;
26598;SDS011;14240;51.064;16.612;2023-03-14T02:56:12;8.25;;;4.35;;
26598;SDS011;14240;51.064;16.612;2023-03-14T02:58:38;6.82;;;4.60;;
26598;SDS011;14240;51.064;16.612;2023-03-14T03:01:04;7.53;;;4.47;;
26598;SDS011;14240;51.064;16.612;2023-03-14T03:03:30;6.43;;;4.35;;
26598;SDS011;14240;51.064;16.612;2023-03-14T03:05:56;7.28;;;4.47;;
26598;SDS011;14240;51.064;16.612;2023-03-14T03:08:23;8.85;;;4.80;;
26598;SDS011;14240;51.064;16.612;2023-03-14T03:10:51;9.45;;;4.63;;
26598;SDS011;14240;51.064;16.612;2023-03-14T03:13:17;6.65;;;4.03;;
26598;SDS011;14240;51.064;16.612;2023-03-14T03:15:43;7.13;;;4.75;;
26598;SDS011;14240;51.064;16.612;2023-03-14T03:18:09;10.68;;;4.57;;
26598;SDS011;14240;51.064;16.612;2023-03-14T03:20:35;8.85;;;4.32;;
26598;SDS011;14240;51.064;16.612;2023-03-14T03:23:01;9.02;;;4.60;;
26598;SDS011;14240;51.064;16.612;2023-03-14T03:25:27;10.55;;;5.22;;
26598;SDS011;14240;51.064;16.612;2023-03-14T03:27:54;10.85;;;5.90;;
26598;SDS011;14240;51.064;16.612;2023-03-14T03:30:20;8.63;;;4.68;;
26598;SDS011;14240;51.064;16.612;2023-03-14T03:32:46;8.77;;;5.00;;
26598;SDS011;14240;51.064;16.612;2023-03-14T03:35:12;9.82;;;4.45;;
26598;SDS011;14240;51.064;16.612;2023-03-14T03:37:38;7.03;;;4.30;;
26598;SDS011;14240;51.064;16.612;2023-03-14T03:40:04;8.55;;;4.90;;
26598;SDS011;14240;51.064;16.612;2023-03-14T03:42:31;8.82;;;4.57;;
26598;SDS011;14240;51.064;16.612;2023-03-14T03:44:59;7.80;;;4.27;;
26598;SDS011;14240;51.064;16.612;2023-03-14T03:47:25;9.68;;;4.25;;
26598;SDS011;14240;51.064;16.612;2023-03-14T03:49:51;6.35;;;4.18;;
26598;SDS011;14240;51.064;16.612;2023-03-14T03:52:17;9.63;;;4.63;;
26598;SDS011;14240;51.064;16.612;2023-03-14T03:54:43;10.18;;;4.22;;
26598;SDS011;14240;51.064;16.612;2023-03-14T03:57:09;9.00;;;4.40;;
26598;SDS011;14240;51.064;16.612;2023-03-14T03:59:34;7.47;;;4.72;;
26598;SDS011;14240;51.064;16.612;2023-03-14T04:02:00;9.85;;;5.90;;
26598;SDS011;14240;51.064;16.612;2023-03-14T04:04:26;10.48;;;5.32;;
26598;SDS011;14240;51.064;16.612;2023-03-14T04:06:52;12.93;;;4.57;;
26598;SDS011;14240;51.064;16.612;2023-03-14T04:09:17;12.75;;;5.40;;
26598;SDS011;14240;51.064;16.612;2023-03-14T04:11:43;12.18;;;5.03;;
26598;SDS011;14240;51.064;16.612;2023-03-14T04:14:09;11.23;;;5.45;;
26598;SDS011;14240;51.064;16.612;2023-03-14T04:16:35;31.88;;;10.70;;
26598;SDS011;14240;51.064;16.612;2023-03-14T04:19:01;10.45;;;4.53;;
26598;SDS011;14240;51.064;16.612;2023-03-14T04:21:27;10.13;;;4.68;;
26598;SDS011;14240;51.064;16.612;2023-03-14T04:23:53;6.57;;;4.65;;
26598;SDS011;14240;51.064;16.612;2023-03-14T04:26:19;9.55;;;4.97;;
26598;SDS011;14240;51.064;16.612;2023-03-14T04:28:45;15.77;;;7.05;;
26598;SDS011;14240;51.064;16.612;2023-03-14T04:31:12;21.63;;;8.32;;
26598;SDS011;14240;51.064;16.612;2023-03-14T04:33:41;18.55;;;7.00;;
26598;SDS011;14240;51.064;16.612;2023-03-14T04:36:08;16.40;;;6.35;;
26598;SDS011;14240;51.064;16.612;2023-03-14T04:38:34;14.67;;;6.00;;
26598;SDS011;14240;51.064;16.612;2023-03-14T04:41:00;21.50;;;9.63;;
26598;SDS011;14240;51.064;16.612;2023-03-14T04:43:27;55.70;;;24.95;;
26598;SDS011;14240;51.064;16.612;2023-03-14T04:45:53;29.70;;;16.35;;
26598;SDS011;14240;51.064;16.612;2023-03-14T04:48:19;13.05;;;7.43;;
26598;SDS011;14240;51.064;16.612;2023-03-14T04:50:48;10.30;;;5.15;;
26598;SDS011;14240;51.064;16.612;2023-03-14T04:53:14;8.15;;;4.65;;
26598;SDS011;14240;51.064;16.612;2023-03-14T04:55:40;7.22;;;5.03;;
26598;SDS011;14240;51.064;16.612;2023-03-14T04:58:06;7.63;;;4.40;;
26598;SDS011;14240;51.064;16.612;2023-03-14T05:00:32;7.28;;;4.60;;
26598;SDS011;14240;51.064;16.612;2023-03-14T05:02:58;7.20;;;4.10;;
26598;SDS011;14240;51.064;16.612;2023-03-14T05:05:24;9.93;;;4.35;;
26598;SDS011;14240;51.064;16.612;2023-03-14T05:07:49;17.75;;;8.07;;
26598;SDS011;14240;51.064;16.612;2023-03-14T05:10:15;20.73;;;11.68;;
26598;SDS011;14240;51.064;16.612;2023-03-14T05:12:41;26.63;;;14.43;;
26598;SDS011;14240;51.064;16.612;2023-03-14T05:15:07;17.52;;;10.07;;
26598;SDS011;14240;51.064;16.612;2023-03-14T05:17:33;13.20;;;6.72;;
26598;SDS011;14240;51.064;16.612;2023-03-14T05:19:59;14.50;;;6.63;;
26598;SDS011;14240;51.064;16.612;2023-03-14T05:22:24;11.25;;;5.40;;
26598;SDS011;14240;51.064;16.612;2023-03-14T05:24:51;10.65;;;5.10;;
26598;SDS011;14240;51.064;16.612;2023-03-14T05:27:18;10.20;;;5.97;;
26598;SDS011;14240;51.064;16.612;2023-03-14T05:29:44;10.93;;;5.80;;
26598;SDS011;14240;51.064;16.612;2023-03-14T05:32:09;10.27;;;5.40;;
26598;SDS011;14240;51.064;16.612;2023-03-14T05:34:35;7.78;;;4.60;;
26598;SDS011;14240;51.064;16.612;2023-03-14T05:37:01;9.13;;;4.78;;
26598;SDS011;14240;51.064;16.612;2023-03-14T05:39:26;7.97;;;4.45;;
26598;SDS011;14240;51.064;16.612;2023-03-14T05:41:52;6.03;;;4.05;;
26598;SDS011;14240;51.064;16.612;2023-03-14T05:44:20;10.35;;;5.22;;
26598;SDS011;14240;51.064;16.612;2023-03-14T05:46:46;8.30;;;5.22;;
26598;SDS011;14240;51.064;16.612;2023-03-14T05:49:12;8.43;;;5.18;;
26598;SDS011;14240;51.064;16.612;2023-03-14T05:51:37;11.07;;;5.63;;
26598;SDS011;14240;51.064;16.612;2023-03-14T05:54:03;15.45;;;5.90;;
26598;SDS011;14240;51.064;16.612;2023-03-14T05:56:29;13.88;;;6.80;;
26598;SDS011;14240;51.064;16.612;2023-03-14T05:58:55;31.50;;;12.55;;
26598;SDS011;14240;51.064;16.612;2023-03-14T06:01:20;25.30;;;10.73;;
26598;SDS011;14240;51.064;16.612;2023-03-14T06:03:46;14.63;;;6.72;;
26598;SDS011;14240;51.064;16.612;2023-03-14T06:06:12;13.27;;;8.30;;
26598;SDS011;14240;51.064;16.612;2023-03-14T06:08:37;13.70;;;7.45;;
26598;SDS011;14240;51.064;16.612;2023-03-14T06:11:03;8.75;;;5.70;;
26598;SDS011;14240;51.064;16.612;2023-03-14T06:13:29;9.50;;;5.50;;
26598;SDS011;14240;51.064;16.612;2023-03-14T06:15:54;11.95;;;5.93;;
26598;SDS011;14240;51.064;16.612;2023-03-14T06:18:20;15.10;;;8.30;;
26598;SDS011;14240;51.064;16.612;2023-03-14T06:20:46;11.85;;;7.10;;
26598;SDS011;14240;51.064;16.612;2023-03-14T06:23:12;8.25;;;5.63;;
26598;SDS011;14240;51.064;16.612;2023-03-14T06:25:38;13.15;;;5.22;;
26598;SDS011;14240;51.064;16.612;2023-03-14T06:28:03;12.50;;;4.93;;
26598;SDS011;14240;51.064;16.612;2023-03-14T06:30:29;11.70;;;5.03;;
26598;SDS011;14240;51.064;16.612;2023-03-14T06:32:55;10.77;;;4.95;;
26598;SDS011;14240;51.064;16.612;2023-03-14T06:35:21;12.70;;;5.38;;
26598;SDS011;14240;51.064;16.612;2023-03-14T06:37:47;11.43;;;5.95;;
26598;SDS011;14240;51.064;16.612;2023-03-14T06:40:13;9.45;;;5.70;;
26598;SDS011;14240;51.064;16.612;2023-03-14T06:42:45;11.60;;;4.90;;
26598;SDS011;14240;51.064;16.612;2023-03-14T06:45:12;8.52;;;5.13;;
26598;SDS011;14240;51.064;16.612;2023-03-14T06:47:38;13.32;;;5.82;;
26598;SDS011;14240;51.064;16.612;2023-03-14T06:50:05;9.43;;;5.75;;
26598;SDS011;14240;51.064;16.612;2023-03-14T06:52:31;14.65;;;6.30;;
26598;SDS011;14240;51.064;16.612;2023-03-14T06:54:57;18.15;;;7.97;;
26598;SDS011;14240;51.064;16.612;2023-03-14T06:57:22;12.32;;;6.60;;
26598;SDS011;14240;51.064;16.612;2023-03-14T06:59:48;12.75;;;6.25;;
26598;SDS011;14240;51.064;16.612;2023-03-14T07:02:14;14.65;;;6.72;;
26598;SDS011;14240;51.064;16.612;2023-03-14T07:04:40;17.30;;;7.82;;
26598;SDS011;14240;51.064;16.612;2023-03-14T07:07:06;20.75;;;10.00;;
26598;SDS011;14240;51.064;16.612;2023-03-14T07:09:32;22.60;;;9.93;;
26598;SDS011;14240;51.064;16.612;2023-03-14T07:11:58;19.23;;;9.48;;
26598;SDS011;14240;51.064;16.612;2023-03-14T07:14:24;26.85;;;10.98;;
26598;SDS011;14240;51.064;16.612;2023-03-14T07:16:50;19.88;;;10.10;;
26598;SDS011;14240;51.064;16.612;2023-03-14T07:19:15;36.33;;;18.27;;
26598;SDS011;14240;51.064;16.612;2023-03-14T07:21:42;14.65;;;7.38;;
26598;SDS011;14240;51.064;16.612;2023-03-14T07:24:14;20.10;;;8.93;;
26598;SDS011;14240;51.064;16.612;2023-03-14T07:26:40;37.97;;;15.63;;
26598;SDS011;14240;51.064;16.612;2023-03-14T07:29:06;26.15;;;11.20;;
26598;SDS011;14240;51.064;16.612;2023-03-14T07:31:32;21.40;;;9.88;;
26598;SDS011;14240;51.064;16.612;2023-03-14T07:33:57;18.80;;;9.88;;
26598;SDS011;14240;51.064;16.612;2023-03-14T07:36:23;21.30;;;8.77;;
26598;SDS011;14240;51.064;16.612;2023-03-14T07:38:49;26.95;;;13.23;;
26598;SDS011;14240;51.064;16.612;2023-03-14T07:41:16;33.03;;;16.95;;
26598;SDS011;14240;51.064;16.612;2023-03-14T07:43:41;30.30;;;14.45;;
26598;SDS011;14240;51.064;16.612;2023-03-14T07:46:07;27.70;;;11.13;;
26598;SDS011;14240;51.064;16.612;2023-03-14T07:48:33;19.38;;;8.93;;
26598;SDS011;14240;51.064;16.612;2023-03-14T07:50:59;19.33;;;9.43;;
26598;SDS011;14240;51.064;16.612;2023-03-14T07:53:25;18.42;;;7.65;;
26598;SDS011;14240;51.064;16.612;2023-03-14T07:55:51;18.63;;;8.50;;
26598;SDS011;14240;51.064;16.612;2023-03-14T07:58:18;25.55;;;11.48;;
26598;SDS011;14240;51.064;16.612;2023-03-14T08:00:44;20.20;;;10.77;;
26598;SDS011;14240;51.064;16.612;2023-03-14T08:03:10;12.82;;;6.30;;
26598;SDS011;14240;51.064;16.612;2023-03-14T08:05:36;12.60;;;5.50;;
26598;SDS011;14240;51.064;16.612;2023-03-14T08:08:02;15.02;;;6.22;;
26598;SDS011;14240;51.064;16.612;2023-03-14T08:10:29;12.93;;;7.82;;
26598;SDS011;14240;51.064;16.612;2023-03-14T08:12:55;20.27;;;11.98;;
26598;SDS011;14240;51.064;16.612;2023-03-14T08:15:22;118.22;;;63.15;;
26598;SDS011;14240;51.064;16.612;2023-03-14T08:17:49;103.10;;;60.00;;
26598;SDS011;14240;51.064;16.612;2023-03-14T08:20:19;52.28;;;35.75;;
26598;SDS011;14240;51.064;16.612;2023-03-14T08:22:45;21.77;;;14.93;;
26598;SDS011;14240;51.064;16.612;2023-03-14T08:25:11;18.48;;;7.90;;
26598;SDS011;14240;51.064;16.612;2023-03-14T08:27:37;17.08;;;7.35;;
26598;SDS011;14240;51.064;16.612;2023-03-14T08:30:07;13.20;;;6.22;;
26598;SDS011;14240;51.064;16.612;2023-03-14T08:32:34;6.68;;;4.80;;
26598;SDS011;14240;51.064;16.612;2023-03-14T08:35:00;15.30;;;6.95;;
26598;SDS011;14240;51.064;16.612;2023-03-14T08:37:26;16.45;;;7.28;;
26598;SDS011;14240;51.064;16.612;2023-03-14T08:39:52;13.27;;;5.88;;
26598;SDS011;14240;51.064;16.612;2023-03-14T08:42:18;10.02;;;5.03;;
26598;SDS011;14240;51.064;16.612;2023-03-14T08:44:44;11.30;;;5.38;;
26598;SDS011;14240;51.064;16.612;2023-03-14T08:47:10;18.17;;;7.60;;
26598;SDS011;14240;51.064;16.612;2023-03-14T08:49:36;18.08;;;7.85;;
26598;SDS011;14240;51.064;16.612;2023-03-14T08:52:02;11.13;;;6.15;;
26598;SDS011;14240;51.064;16.612;2023-03-14T08:54:29;24.95;;;9.60;;
26598;SDS011;14240;51.064;16.612;2023-03-14T08:56:55;11.82;;;6.00;;
26598;SDS011;14240;51.064;16.612;2023-03-14T08:59:21;10.05;;;4.88;;
26598;SDS011;14240;51.064;16.612;2023-03-14T09:01:48;28.77;;;11.32;;
26598;SDS011;14240;51.064;16.612;2023-03-14T09:04:13;21.08;;;7.80;;
26598;SDS011;14240;51.064;16.612;2023-03-14T09:06:39;21.42;;;7.95;;
26598;SDS011;14240;51.064;16.612;2023-03-14T09:09:05;9.85;;;5.03;;
26598;SDS011;14240;51.064;16.612;2023-03-14T09:11:31;13.25;;;5.40;;
26598;SDS011;14240;51.064;16.612;2023-03-14T09:13:57;8.90;;;5.13;;
26598;SDS011;14240;51.064;16.612;2023-03-14T09:16:23;15.07;;;6.10;;
26598;SDS011;14240;51.064;16.612;2023-03-14T09:18:49;14.48;;;6.30;;
26598;SDS011;14240;51.064;16.612;2023-03-14T09:21:15;17.52;;;9.15;;
26598;SDS011;14240;51.064;16.612;2023-03-14T09:23:41;23.95;;;10.10;;
26598;SDS011;14240;51.064;16.612;2023-03-14T09:26:07;13.75;;;6.47;;
26598;SDS011;14240;51.064;16.612;2023-03-14T09:28:33;20.65;;;6.45;;
26598;SDS011;14240;51.064;16.612;2023-03-14T09:31:04;18.25;;;8.23;;
26598;SDS011;14240;51.064;16.612;2023-03-14T09:33:34;7.07;;;4.65;;
26598;SDS011;14240;51.064;16.612;2023-03-14T09:36:00;13.40;;;6.55;;
26598;SDS011;14240;51.064;16.612;2023-03-14T09:38:27;11.15;;;5.05;;
26598;SDS011;14240;51.064;16.612;2023-03-14T09:40:53;11.23;;;5.15;;
26598;SDS011;14240;51.064;16.612;2023-03-14T09:43:20;8.48;;;4.60;;
26598;SDS011;14240;51.064;16.612;2023-03-14T09:45:48;9.80;;;5.72;;
26598;SDS011;14240;51.064;16.612;2023-03-14T09:48:16;7.10;;;4.57;;
26598;SDS011;14240;51.064;16.612;2023-03-14T09:50:50;10.50;;;5.13;;
26598;SDS011;14240;51.064;16.612;2023-03-14T09:53:22;9.65;;;4.90;;
26598;SDS011;14240;51.064;16.612;2023-03-14T09:55:54;15.88;;;5.03;;
26598;SDS011;14240;51.064;16.612;2023-03-14T09:58:23;11.80;;;5.88;;
26598;SDS011;14240;51.064;16.612;2023-03-14T10:00:49;6.20;;;3.93;;
26598;SDS011;14240;51.064;16.612;2023-03-14T10:03:22;17.95;;;6.93;;
26598;SDS011;14240;51.064;16.612;2023-03-14T10:05:54;17.25;;;6.70;;
26598;SDS011;14240;51.064;16.612;2023-03-14T10:08:21;24.10;;;7.55;;
26598;SDS011;14240;51.064;16.612;2023-03-14T10:10:47;14.15;;;6.45;;
26598;SDS011;14240;51.064;16.612;2023-03-14T10:15:41;12.32;;;6.43;;
26598;SDS011;14240;51.064;16.612;2023-03-14T10:18:13;15.32;;;6.97;;
26598;SDS011;14240;51.064;16.612;2023-03-14T10:20:43;20.00;;;7.07;;
26598;SDS011;14240;51.064;16.612;2023-03-14T10:25:43;16.55;;;5.93;;
26598;SDS011;14240;51.064;16.612;2023-03-14T10:28:28;14.52;;;6.50;;
26598;SDS011;14240;51.064;16.612;2023-03-14T10:30:56;10.70;;;5.63;;
26598;SDS011;14240;51.064;16.612;2023-03-14T10:33:24;10.25;;;5.35;;
26598;SDS011;14240;51.064;16.612;2023-03-14T10:35:57;13.80;;;6.25;;
26598;SDS011;14240;51.064;16.612;2023-03-14T10:38:25;17.50;;;11.93;;
26598;SDS011;14240;51.064;16.612;2023-03-14T10:40:53;15.23;;;6.65;;
26598;SDS011;14240;51.064;16.612;2023-03-14T10:43:25;14.68;;;6.65;;
26598;SDS011;14240;51.064;16.612;2023-03-14T10:45:59;17.50;;;8.35;;
26598;SDS011;14240;51.064;16.612;2023-03-14T10:48:37;17.58;;;8.60;;
26598;SDS011;14240;51.064;16.612;2023-03-14T10:53:43;13.68;;;5.82;;
26598;SDS011;14240;51.064;16.612;2023-03-14T10:56:13;13.52;;;6.18;;
26598;SDS011;14240;51.064;16.612;2023-03-14T10:58:45;9.18;;;4.60;;
26598;SDS011;14240;51.064;16.612;2023-03-14T11:03:43;8.70;;;5.28;;
26598;SDS011;14240;51.064;16.612;2023-03-14T11:06:23;11.32;;;5.05;;
26598;SDS011;14240;51.064;16.612;2023-03-14T11:11:48;12.63;;;6.30;;
26598;SDS011;14240;51.064;16.612;2023-03-14T11:14:25;10.88;;;5.47;;
26598;SDS011;14240;51.064;16.612;2023-03-14T11:17:15;9.90;;;5.80;;
26598;SDS011;14240;51.064;16.612;2023-03-14T11:19:53;28.75;;;13.68;;
26598;SDS011;14240;51.064;16.612;2023-03-14T11:22:39;18.02;;;8.38;;
26598;SDS011;14240;51.064;16.612;2023-03-14T11:30:44;16.05;;;7.45;;
26598;SDS011;14240;51.064;16.612;2023-03-14T11:33:17;10.52;;;6.05;;
26598;SDS011;14240;51.064;16.612;2023-03-14T11:35:58;12.13;;;5.55;;
26598;SDS011;14240;51.064;16.612;2023-03-14T11:38:34;9.00;;;4.68;;
26598;SDS011;14240;51.064;16.612;2023-03-14T11:41:11;6.45;;;3.85;;
26598;SDS011;14240;51.064;16.612;2023-03-14T11:43:48;5.38;;;4.13;;
26598;SDS011;14240;51.064;16.612;2023-03-14T11:46:19;6.38;;;4.00;;
26598;SDS011;14240;51.064;16.612;2023-03-14T11:49:03;7.85;;;3.63;;
26598;SDS011;14240;51.064;16.612;2023-03-14T11:51:46;6.35;;;3.90;;
26598;SDS011;14240;51.064;16.612;2023-03-14T11:54:34;8.90;;;4.50;;
26598;SDS011;14240;51.064;16.612;2023-03-14T11:57:11;6.90;;;3.95;;
26598;SDS011;14240;51.064;16.612;2023-03-14T12:07:34;6.38;;;4.18;;
26598;SDS011;14240;51.064;16.612;2023-03-14T12:10:03;5.47;;;3.90;;
26598;SDS011;14240;51.064;16.612;2023-03-14T12:12:30;8.23;;;3.67;;
26598;SDS011;14240;51.064;16.612;2023-03-14T12:14:58;7.83;;;4.00;;
26598;SDS011;14240;51.064;16.612;2023-03-14T12:17:27;6.78;;;4.10;;
26598;SDS011;14240;51.064;16.612;2023-03-14T12:20:04;5.55;;;4.70;;
26598;SDS011;14240;51.064;16.612;2023-03-14T12:22:37;13.30;;;5.27;;
26598;SDS011;14240;51.064;16.612;2023-03-14T12:32:42;10.27;;;5.47;;
26598;SDS011;14240;51.064;16.612;2023-03-14T12:35:32;14.32;;;5.30;;
26598;SDS011;14240;51.064;16.612;2023-03-14T12:41:26;9.45;;;4.53;;
26598;SDS011;14240;51.064;16.612;2023-03-14T12:49:43;12.15;;;6.78;;
26598;SDS011;14240;51.064;16.612;2023-03-14T12:52:14;12.38;;;5.95;;
26598;SDS011;14240;51.064;16.612;2023-03-14T12:54:44;17.80;;;6.63;;
26598;SDS011;14240;51.064;16.612;2023-03-14T13:02:46;5.28;;;3.70;;
26598;SDS011;14240;51.064;16.612;2023-03-14T13:05:20;11.63;;;5.07;;
26598;SDS011;14240;51.064;16.612;2023-03-14T13:13:29;7.07;;;4.18;;
26598;SDS011;14240;51.064;16.612;2023-03-14T13:15:55;7.90;;;4.40;;
26598;SDS011;14240;51.064;16.612;2023-03-14T13:18:30;13.30;;;5.38;;
26598;SDS011;14240;51.064;16.612;2023-03-14T13:20:59;7.28;;;4.10;;
26598;SDS011;14240;51.064;16.612;2023-03-14T13:24:04;8.98;;;4.32;;
26598;SDS011;14240;51.064;16.612;2023-03-14T13:26:43;5.75;;;3.67;;
26598;SDS011;14240;51.064;16.612;2023-03-14T13:31:48;17.15;;;6.05;;
26598;SDS011;14240;51.064;16.612;2023-03-14T13:34:40;9.38;;;4.50;;
26598;SDS011;14240;51.064;16.612;2023-03-14T13:37:13;10.90;;;5.05;;
26598;SDS011;14240;51.064;16.612;2023-03-14T13:39:49;6.88;;;3.45;;
26598;SDS011;14240;51.064;16.612;2023-03-14T13:42:20;14.88;;;4.95;;
26598;SDS011;14240;51.064;16.612;2023-03-14T13:44:50;12.77;;;4.53;;
26598;SDS011;14240;51.064;16.612;2023-03-14T13:47:18;6.70;;;3.92;;
26598;SDS011;14240;51.064;16.612;2023-03-14T13:49:46;10.00;;;3.53;;
26598;SDS011;14240;51.064;16.612;2023-03-14T13:52:30;4.50;;;2.50;;
26598;SDS011;14240;51.064;16.612;2023-03-14T13:54:57;16.75;;;4.55;;
26598;SDS011;14240;51.064;16.612;2023-03-14T13:57:25;8.60;;;3.33;;
26598;SDS011;14240;51.064;16.612;2023-03-14T13:59:58;14.63;;;3.60;;
26598;SDS011;14240;51.064;16.612;2023-03-14T14:02:26;4.32;;;2.70;;
26598;SDS011;14240;51.064;16.612;2023-03-14T14:04:53;3.38;;;2.70;;
26598;SDS011;14240;51.064;16.612;2023-03-14T14:07:18;4.47;;;2.85;;
26598;SDS011;14240;51.064;16.612;2023-03-14T14:09:46;8.38;;;2.70;;
26598;SDS011;14240;51.064;16.612;2023-03-14T14:12:18;5.40;;;2.72;;
26598;SDS011;14240;51.064;16.612;2023-03-14T14:15:11;2.75;;;1.88;;
26598;SDS011;14240;51.064;16.612;2023-03-14T14:18:06;5.65;;;2.20;;
26598;SDS011;14240;51.064;16.612;2023-03-14T14:20:39;6.68;;;3.15;;
26598;SDS011;14240;51.064;16.612;2023-03-14T14:23:09;4.93;;;1.95;;
26598;SDS011;14240;51.064;16.612;2023-03-14T14:25:37;7.05;;;2.25;;
26598;SDS011;14240;51.064;16.612;2023-03-14T14:33:43;7.15;;;1.85;;
26598;SDS011;14240;51.064;16.612;2023-03-14T14:36:14;4.45;;;2.80;;
26598;SDS011;14240;51.064;16.612;2023-03-14T14:38:49;5.07;;;2.10;;
26598;SDS011;14240;51.064;16.612;2023-03-14T14:41:16;3.65;;;2.17;;
26598;SDS011;14240;51.064;16.612;2023-03-14T14:43:41;3.33;;;1.95;;
26598;SDS011;14240;51.064;16.612;2023-03-14T14:46:08;2.05;;;1.42;;
26598;SDS011;14240;51.064;16.612;2023-03-14T14:48:38;3.92;;;2.08;;
26598;SDS011;14240;51.064;16.612;2023-03-14T14:51:05;3.47;;;1.88;;
26598;SDS011;14240;51.064;16.612;2023-03-14T14:53:38;3.22;;;1.52;;
26598;SDS011;14240;51.064;16.612;2023-03-14T14:56:27;5.50;;;1.90;;
26598;SDS011;14240;51.064;16.612;2023-03-14T14:58:59;3.40;;;1.90;;
26598;SDS011;14240;51.064;16.612;2023-03-14T15:01:34;2.97;;;2.08;;
26598;SDS011;14240;51.064;16.612;2023-03-14T15:04:03;4.35;;;1.88;;
26598;SDS011;14240;51.064;16.612;2023-03-14T15:06:42;2.15;;;1.35;;
26598;SDS011;14240;51.064;16.612;2023-03-14T15:09:10;4.82;;;2.17;;
26598;SDS011;14240;51.064;16.612;2023-03-14T15:11:36;1.67;;;1.30;;
26598;SDS011;14240;51.064;16.612;2023-03-14T15:14:02;3.63;;;1.40;;
26598;SDS011;14240;51.064;16.612;2023-03-14T15:16:29;5.35;;;1.98;;
26598;SDS011;14240;51.064;16.612;2023-03-14T15:18:56;7.75;;;2.42;;
26598;SDS011;14240;51.064;16.612;2023-03-14T15:21:24;3.45;;;2.17;;
26598;SDS011;14240;51.064;16.612;2023-03-14T15:23:51;2.13;;;1.50;;
26598;SDS011;14240;51.064;16.612;2023-03-14T15:26:18;2.70;;;1.40;;
26598;SDS011;14240;51.064;16.612;2023-03-14T15:28:45;6.45;;;1.88;;
26598;SDS011;14240;51.064;16.612;2023-03-14T15:31:12;4.82;;;1.40;;
26598;SDS011;14240;51.064;16.612;2023-03-14T15:33:39;4.13;;;1.95;;
26598;SDS011;14240;51.064;16.612;2023-03-14T15:36:06;3.67;;;2.00;;
26598;SDS011;14240;51.064;16.612;2023-03-14T15:38:47;3.80;;;2.05;;
26598;SDS011;14240;51.064;16.612;2023-03-14T15:41:13;4.28;;;2.70;;
26598;SDS011;14240;51.064;16.612;2023-03-14T15:43:40;5.45;;;2.13;;
26598;SDS011;14240;51.064;16.612;2023-03-14T15:46:10;21.90;;;10.15;;